Time;durP1;ratioP1;P1;durP2;ratioP2;P2;SDS_P1;SDS_P2;PMS_P1;PMS_P2;Temp;Humidity;BMP_temperature;BMP_pressure;BME280_temperature;BME280_humidity;BME280_pressure;Samples;Min_cycle;Max_cycle;Signal;HPM_P1;HPM_P2
2021/07/05 17:19:43;;;;;;;1.92;0.80;;;;;;;23.36;61.24;97739.32;4129291;70;22437;-21
2021/07/05 17:30:03;;;;;;;2.05;0.72;;;;;;;23.68;61.76;97749.47;3843484;73;22797;-21
2021/07/05 17:35:11;;;;;;;2.20;0.60;;;;;;;24.19;59.22;97748.19;3701712;78;44170;-23
2021/07/05 17:59:00;;;;;;;1.47;0.63;;;;;;;23.01;64.34;97755.72;11463563;74;29471;-21
2021/07/05 18:29:21;;;;;;;0.93;0.60;;;;;;;21.70;72.30;97780.30;10794711;75;63832;-22
2021/07/05 19:04:20;;;;;;;1.00;0.75;;;;;;;21.41;75.71;97791.33;7777366;72;29491;-24
2021/07/05 19:24:39;;;;;;;0.98;0.88;;;;;;;20.96;79.78;97790.78;7987175;73;22195;-25
2021/07/05 19:41:52;;;;;;;0.90;0.80;;;;;;;20.59;84.15;97804.23;3863727;73;22288;-23
2021/07/05 19:52:11;;;;;;;1.65;0.90;;;;;;;20.62;84.43;97818.29;3820139;73;27498;-23
2021/07/05 20:10:29;;;;;;;2.00;0.80;;;;;;;20.42;87.22;97836.97;10395586;27;20627;-23
2021/07/05 20:15:34;;;;;;;1.17;1.00;;;;;;;20.35;87.46;97833.53;10514366;28;20465;-23
2021/07/05 20:20:41;;;;;;;1.25;0.90;;;;;;;20.29;88.64;97852.56;10491429;27;20055;-24
2021/07/05 20:25:45;;;;;;;0.93;0.70;;;;;;;20.29;89.14;97855.28;10470310;28;20045;-23
2021/07/05 20:30:49;;;;;;;0.85;0.65;;;;;;;20.28;89.01;97863.75;10486685;27;20056;-24
2021/07/05 20:35:52;;;;;;;1.55;0.90;;;;;;;20.22;89.25;97864.72;10497165;28;20033;-24
2021/07/05 20:40:56;;;;;;;1.48;0.90;;;;;;;20.06;91.26;97861.59;10496568;28;20142;-23
2021/07/05 20:46:01;;;;;;;2.13;1.00;;;;;;;20.04;91.89;97863.75;10489246;28;20041;-23
2021/07/05 20:51:04;;;;;;;1.83;0.90;;;;;;;19.97;94.28;97863.84;10521256;27;20044;-23
2021/07/05 20:56:10;;;;;;;0.90;0.70;;;;;;;19.96;94.96;97870.38;10544896;28;20035;-23
2021/07/05 21:01:13;;;;;;;2.00;1.00;;;;;;;19.75;96.87;97870.91;10548918;28;20841;-23
2021/07/05 21:06:16;;;;;;;1.73;1.00;;;;;;;19.60;99.77;97872.19;10548305;28;20047;-23
2021/07/05 21:11:20;;;;;;;2.17;1.65;;;;;;;19.47;100.00;97862.28;10547654;28;20480;-24
2021/07/05 21:16:23;;;;;;;1.40;1.30;;;;;;;19.43;100.00;97865.72;10563316;28;20036;-25
2021/07/05 21:21:26;;;;;;;2.22;1.15;;;;;;;19.37;100.00;97854.66;10535158;28;20048;-22
2021/07/05 21:26:31;;;;;;;1.52;0.93;;;;;;;19.36;100.00;97850.25;10537072;28;20036;-24
2021/07/05 21:31:34;;;;;;;1.20;0.90;;;;;;;19.25;100.00;97851.03;10536525;28;20039;-24
2021/07/05 21:36:37;;;;;;;1.90;1.02;;;;;;;19.26;100.00;97858.19;10534389;28;20043;-22
2021/07/05 21:41:41;;;;;;;1.25;0.90;;;;;;;19.17;100.00;97859.56;10533729;28;20817;-23
2021/07/05 21:46:44;;;;;;;2.88;1.10;;;;;;;18.92;100.00;97868.69;10530307;28;20040;-23
2021/07/05 21:51:47;;;;;;;1.67;1.23;;;;;;;18.74;100.00;97864.91;10526488;28;20055;-23
2021/07/05 21:56:52;;;;;;;1.30;0.95;;;;;;;18.59;100.00;97859.81;10531343;28;20035;-24
2021/07/05 22:01:55;;;;;;;2.95;1.13;;;;;;;18.47;100.00;97862.47;10526048;28;20054;-23
2021/07/05 22:06:58;;;;;;;1.73;1.30;;;;;;;18.30;100.00;97850.47;10505974;28;20055;-22
2021/07/05 22:12:03;;;;;;;1.48;1.13;;;;;;;18.29;100.00;97854.25;10498249;28;20040;-24
2021/07/05 22:17:06;;;;;;;2.20;1.10;;;;;;;18.31;100.00;97849.41;10477538;28;20415;-23
2021/07/05 22:22:09;;;;;;;1.45;1.10;;;;;;;18.28;100.00;97849.91;10469821;28;20059;-23
2021/07/05 22:27:14;;;;;;;0.98;0.80;;;;;;;18.29;100.00;97848.81;10469594;28;20382;-22
2021/07/05 22:32:17;;;;;;;3.05;1.08;;;;;;;18.16;100.00;97839.72;10467015;28;20037;-23
2021/07/05 22:37:20;;;;;;;1.60;1.17;;;;;;;18.10;100.00;97829.72;10462482;28;20078;-22
2021/07/05 22:42:24;;;;;;;1.25;0.95;;;;;;;18.05;100.00;97826.81;10454938;28;20500;-23
2021/07/05 22:47:27;;;;;;;1.50;1.00;;;;;;;18.03;100.00;97842.56;10462383;28;20051;-22
2021/07/05 22:52:31;;;;;;;3.00;1.05;;;;;;;17.94;100.00;97825.63;10476932;28;20040;-23
2021/07/05 22:57:37;;;;;;;2.03;1.05;;;;;;;17.90;100.00;97837.22;10472295;28;20044;-23
2021/07/05 23:02:42;;;;;;;1.77;1.10;;;;;;;17.72;100.00;97838.81;10490476;28;20373;-23
2021/07/05 23:07:46;;;;;;;1.58;1.10;;;;;;;17.58;100.00;97829.09;10489372;28;20512;-23
2021/07/05 23:12:52;;;;;;;3.00;1.38;;;;;;;17.60;100.00;97824.25;10481121;28;20045;-22
2021/07/05 23:17:56;;;;;;;2.08;1.40;;;;;;;17.62;100.00;97827.56;10486690;28;20626;-22
2021/07/05 23:23:00;;;;;;;2.88;1.20;;;;;;;17.63;100.00;97826.53;10487729;28;20040;-22
2021/07/05 23:28:06;;;;;;;2.00;1.27;;;;;;;17.65;100.00;97827.97;10479625;28;20040;-22
2021/07/05 23:33:09;;;;;;;1.33;0.93;;;;;;;17.81;100.00;97826.59;10483163;28;20040;-22
2021/07/05 23:38:12;;;;;;;1.30;1.02;;;;;;;17.76;100.00;97823.69;10480040;28;20058;-24
2021/07/05 23:43:16;;;;;;;2.20;1.40;;;;;;;17.72;100.00;97822.47;10480774;28;20055;-24
2021/07/05 23:48:19;;;;;;;1.63;1.08;;;;;;;17.71;100.00;97818.91;10480497;28;20036;-24
2021/07/05 23:53:22;;;;;;;1.42;1.05;;;;;;;17.69;100.00;97825.66;10477013;28;20035;-24
2021/07/05 23:58:26;;;;;;;2.13;1.15;;;;;;;17.61;100.00;97823.19;10474874;28;20040;-23
